createdAt,value
2023-05-07T00:00:43.520Z,100706.25
2023-05-07T00:03:12.477Z,100689.50
2023-05-07T00:05:42.535Z,100699.72
2023-05-07T00:08:10.304Z,100712.78
2023-05-07T00:10:37.992Z,100707.72
2023-05-07T00:13:05.940Z,100698.53
2023-05-07T00:15:33.676Z,100701.09
2023-05-07T00:18:01.498Z,100717.34
2023-05-07T00:20:29.255Z,100719.59
2023-05-07T00:22:58.347Z,100715.53
2023-05-07T00:25:26.064Z,100707.50
2023-05-07T00:27:54.021Z,100726.75
2023-05-07T00:30:21.827Z,100720.84
2023-05-07T00:32:50.152Z,100719.28
2023-05-07T00:35:17.911Z,100726.56
2023-05-07T00:37:45.711Z,100739.38
2023-05-07T00:40:15.474Z,100732.25
2023-05-07T00:42:47.934Z,100726.78
2023-05-07T00:45:15.944Z,100715.06
2023-05-07T00:47:43.893Z,100719.13
2023-05-07T00:50:13.710Z,100722.38
2023-05-07T00:52:42.742Z,100726.16
2023-05-07T00:55:10.889Z,100721.19
2023-05-07T00:57:42.096Z,100717.25
2023-05-07T01:00:11.553Z,100722.06
2023-05-07T01:02:40.398Z,100723.88
2023-05-07T01:05:10.438Z,100733.66
2023-05-07T01:07:39.335Z,100736.50
2023-05-07T01:10:08.144Z,100715.44
2023-05-07T01:12:36.809Z,100724.34
2023-05-07T01:15:07.771Z,100719.69
2023-05-07T01:17:36.051Z,100710.94
2023-05-07T01:20:05.894Z,100725.00
2023-05-07T01:22:35.726Z,100732.25
2023-05-07T01:25:03.702Z,100732.53
2023-05-07T01:27:31.458Z,100721.91
2023-05-07T01:30:20.795Z,100717.09
2023-05-07T01:33:01.582Z,100714.13
2023-05-07T01:35:34.332Z,100719.31
2023-05-07T01:38:05.730Z,100702.13
2023-05-07T01:40:33.665Z,100713.88
2023-05-07T01:43:01.416Z,100710.00
2023-05-07T01:45:29.329Z,100702.38
2023-05-07T01:47:57.546Z,100718.41
2023-05-07T01:50:25.572Z,100710.47
2023-05-07T01:52:53.515Z,100712.97
2023-05-07T01:55:22.690Z,100711.06
2023-05-07T01:57:50.328Z,100691.72
2023-05-07T02:00:18.602Z,100691.97
2023-05-07T02:02:46.482Z,100694.03
2023-05-07T02:05:14.216Z,100701.25
2023-05-07T02:07:41.912Z,100702.19
2023-05-07T02:10:30.903Z,100715.50
2023-05-07T02:12:58.690Z,100718.50
2023-05-07T02:15:26.816Z,100705.34
2023-05-07T02:18:02.224Z,100710.78
2023-05-07T02:20:30.452Z,100717.06
2023-05-07T02:22:58.334Z,100724.84
2023-05-07T02:25:26.051Z,100712.72
2023-05-07T02:27:55.629Z,100721.63
2023-05-07T02:30:23.325Z,100721.31
2023-05-07T02:32:51.162Z,100714.44
2023-05-07T02:35:19.121Z,100714.56
2023-05-07T02:37:46.813Z,100727.59
2023-05-07T02:40:15.030Z,100723.31
2023-05-07T02:42:42.747Z,100714.88
2023-05-07T02:45:12.699Z,100722.22
2023-05-07T02:47:40.380Z,100715.13
2023-05-07T02:50:09.977Z,100716.50
2023-05-07T02:52:38.171Z,100709.63
2023-05-07T02:55:06.763Z,100709.13
2023-05-07T02:57:34.466Z,100703.69
2023-05-07T03:00:02.534Z,100706.72
2023-05-07T03:02:31.774Z,100704.81
2023-05-07T03:04:59.664Z,100702.06
2023-05-07T03:07:27.333Z,100699.88
2023-05-07T03:09:55.232Z,100720.03
2023-05-07T03:12:23.158Z,100706.34
2023-05-07T03:14:50.830Z,100712.97
2023-05-07T03:17:18.501Z,100692.28
2023-05-07T03:19:47.557Z,100702.09
2023-05-07T03:22:15.360Z,100698.16
2023-05-07T03:24:43.059Z,100712.97
2023-05-07T03:27:10.832Z,100715.16
2023-05-07T03:29:38.938Z,100712.97
2023-05-07T03:32:06.971Z,100703.63
2023-05-07T03:34:34.807Z,100702.84
2023-05-07T03:37:03.886Z,100720.00
2023-05-07T03:39:31.678Z,100713.44
2023-05-07T03:41:59.946Z,100718.94
2023-05-07T03:44:27.840Z,100724.38
2023-05-07T03:46:56.385Z,100708.31
2023-05-07T03:49:24.160Z,100712.94
2023-05-07T03:51:51.884Z,100711.75
2023-05-07T03:54:20.986Z,100704.16
2023-05-07T03:56:48.666Z,100725.19
2023-05-07T03:59:16.375Z,100720.56
2023-05-07T04:01:44.384Z,100718.63
2023-05-07T04:04:12.212Z,100724.41
2023-05-07T04:06:39.924Z,100734.19
2023-05-07T04:09:07.759Z,100737.16
2023-05-07T04:11:38.261Z,100727.56
2023-05-07T04:14:06.292Z,100739.00
2023-05-07T04:16:34.095Z,100738.81
2023-05-07T04:19:01.761Z,100735.78
2023-05-07T04:21:29.533Z,100744.50
2023-05-07T04:23:58.044Z,100744.25
2023-05-07T04:26:25.729Z,100745.09
2023-05-07T04:28:54.849Z,100742.63
2023-05-07T04:31:22.994Z,100745.88
2023-05-07T04:33:51.715Z,100737.47
2023-05-07T04:36:19.948Z,100740.19
2023-05-07T04:38:47.648Z,100725.72
2023-05-07T04:41:16.149Z,100728.91
2023-05-07T04:43:44.045Z,100729.75
2023-05-07T04:46:13.248Z,100729.81
2023-05-07T04:48:40.998Z,100731.91
2023-05-07T04:51:08.693Z,100741.53
2023-05-07T04:53:36.440Z,100745.34
2023-05-07T04:56:04.405Z,100743.41
2023-05-07T04:58:33.056Z,100737.84
2023-05-07T05:01:01.457Z,100742.66
2023-05-07T05:03:31.190Z,100750.22
2023-05-07T05:06:00.423Z,100753.78
2023-05-07T05:08:28.208Z,100758.09
2023-05-07T05:10:55.896Z,100744.50
2023-05-07T05:13:23.643Z,100761.66
2023-05-07T05:15:51.958Z,100734.59
2023-05-07T05:18:19.894Z,100751.59
2023-05-07T05:20:48.965Z,100748.16
2023-05-07T05:23:16.642Z,100740.78
2023-05-07T05:25:44.275Z,100750.44
2023-05-07T05:28:11.921Z,100761.81
2023-05-07T05:30:39.564Z,100749.25
2023-05-07T05:36:29.106Z,100758.44
2023-05-07T05:38:57.418Z,100759.59
2023-05-07T05:41:25.106Z,100773.84
2023-05-07T05:43:52.733Z,100764.50
2023-05-07T05:46:20.503Z,100772.63
2023-05-07T05:48:48.263Z,100783.97
2023-05-07T05:51:15.885Z,100780.66
2023-05-07T05:53:44.976Z,100784.75
2023-05-07T05:56:12.679Z,100781.19
2023-05-07T05:58:40.348Z,100773.91
2023-05-07T06:01:08.276Z,100783.19
2023-05-07T06:03:35.918Z,100782.31
2023-05-07T06:06:03.723Z,100778.41
2023-05-07T06:08:31.927Z,100794.44
2023-05-07T06:11:01.521Z,100780.84
2023-05-07T06:13:29.298Z,100795.88
2023-05-07T06:15:56.970Z,100793.66
2023-05-07T06:18:25.018Z,100788.06
2023-05-07T06:20:53.931Z,100781.75
2023-05-07T06:23:21.568Z,100808.00
2023-05-07T06:25:50.948Z,100791.28
2023-05-07T06:28:20.207Z,100794.44
2023-05-07T06:30:48.280Z,100799.25
2023-05-07T06:33:15.970Z,100802.09
2023-05-07T06:35:43.913Z,100810.69
2023-05-07T06:38:12.057Z,100801.91
2023-05-07T06:40:39.694Z,100806.44
2023-05-07T06:43:07.366Z,100824.28
2023-05-07T06:45:36.524Z,100805.22
2023-05-07T06:48:04.624Z,100815.19
2023-05-07T06:50:32.361Z,100822.25
2023-05-07T06:53:00.132Z,100823.31
2023-05-07T06:55:27.858Z,100810.19
2023-05-07T06:57:55.480Z,100802.56
2023-05-07T07:00:23.237Z,100813.84
2023-05-07T07:02:52.302Z,100820.41
2023-05-07T07:05:20.409Z,100801.81
2023-05-07T07:07:53.573Z,100818.47
2023-05-07T07:10:21.423Z,100816.72
2023-05-07T07:12:49.156Z,100819.09
2023-05-07T07:15:17.072Z,100807.47
2023-05-07T07:17:44.721Z,100809.03
2023-05-07T07:20:14.288Z,100831.63
2023-05-07T07:22:48.558Z,100816.31
2023-05-07T07:25:16.247Z,100817.25
2023-05-07T07:27:43.926Z,100811.69
2023-05-07T07:30:12.227Z,100823.03
2023-05-07T07:32:40.122Z,100815.56
2023-05-07T07:35:09.224Z,100820.28
2023-05-07T07:37:38.343Z,100830.19
2023-05-07T07:40:06.825Z,100833.81
2023-05-07T07:42:34.580Z,100838.22
2023-05-07T07:45:02.274Z,100827.28
2023-05-07T07:47:30.178Z,100838.69
2023-05-07T07:50:00.241Z,100832.75
2023-05-07T07:52:27.932Z,100826.41
2023-05-07T07:54:57.081Z,100834.03
2023-05-07T07:57:24.821Z,100828.91
2023-05-07T07:59:52.918Z,100827.81
2023-05-07T08:02:20.718Z,100822.22
2023-05-07T08:04:48.718Z,100841.47
2023-05-07T08:07:16.517Z,100834.78
2023-05-07T08:09:44.469Z,100839.19
2023-05-07T08:12:13.759Z,100829.03
2023-05-07T08:14:41.553Z,100827.59
2023-05-07T08:17:10.822Z,100848.38
2023-05-07T08:19:38.814Z,100838.28
2023-05-07T08:22:06.744Z,100836.22
2023-05-07T08:27:21.605Z,100835.13
2023-05-07T08:29:49.882Z,100853.63
2023-05-07T08:32:17.592Z,100854.88
2023-05-07T08:34:45.313Z,100838.47
2023-05-07T08:37:21.007Z,100861.06
2023-05-07T08:39:48.745Z,100846.50
2023-05-07T08:42:18.838Z,100844.69
2023-05-07T08:44:49.034Z,100857.91
2023-05-07T08:47:17.047Z,100843.25
2023-05-07T08:49:44.814Z,100830.63
2023-05-07T08:52:14.230Z,100853.28
2023-05-07T08:54:42.251Z,100852.00
2023-05-07T08:57:10.276Z,100856.06
2023-05-07T08:59:38.046Z,100857.69
2023-05-07T09:02:10.024Z,100847.31
2023-05-07T09:04:37.839Z,100837.88
2023-05-07T09:07:06.606Z,100859.28
2023-05-07T09:09:34.643Z,100860.69
2023-05-07T09:12:03.151Z,100844.53
2023-05-07T09:14:31.206Z,100847.53
2023-05-07T09:16:58.935Z,100836.94
2023-05-07T09:19:28.677Z,100846.50
2023-05-07T09:22:02.798Z,100857.22
2023-05-07T09:24:35.180Z,100853.75
2023-05-07T09:27:03.621Z,100852.63
2023-05-07T09:29:36.150Z,100830.56
2023-05-07T09:32:04.979Z,100845.59
2023-05-07T09:34:34.606Z,100840.44
2023-05-07T09:37:03.100Z,100851.50
2023-05-07T09:39:40.899Z,100857.69
2023-05-07T09:42:08.646Z,100859.31
2023-05-07T09:44:57.704Z,100841.75
2023-05-07T09:47:26.582Z,100862.50
2023-05-07T09:49:59.776Z,100840.31
2023-05-07T09:52:29.712Z,100842.81
2023-05-07T09:55:00.267Z,100852.66
2023-05-07T09:57:28.384Z,100855.94
2023-05-07T09:59:56.676Z,100839.34
2023-05-07T10:02:25.967Z,100855.97
2023-05-07T10:05:02.928Z,100868.94
2023-05-07T10:07:30.826Z,100857.03
2023-05-07T10:09:59.543Z,100842.78
2023-05-07T10:12:27.434Z,100858.34
2023-05-07T10:14:55.202Z,100865.81
2023-05-07T10:17:23.032Z,100848.75
2023-05-07T10:19:51.556Z,100847.38
2023-05-07T10:22:21.698Z,100871.41
2023-05-07T10:24:51.214Z,100852.72
2023-05-07T10:27:19.532Z,100851.16
2023-05-07T10:30:00.784Z,100865.72
2023-05-07T10:32:37.749Z,100851.69
2023-05-07T10:35:10.906Z,100862.66
2023-05-07T10:37:40.154Z,100851.19
2023-05-07T10:40:09.204Z,100852.00
2023-05-07T10:42:37.249Z,100840.84
2023-05-07T10:45:15.234Z,100856.75
2023-05-07T10:50:44.757Z,100849.72
2023-05-07T10:53:29.357Z,100849.09
2023-05-07T10:56:28.931Z,100851.03
2023-05-07T10:58:56.636Z,100860.25
2023-05-07T11:01:53.132Z,100846.75
2023-05-07T11:04:25.776Z,100858.31
2023-05-07T11:07:28.141Z,100851.00
2023-05-07T11:09:59.533Z,100856.38
2023-05-07T11:12:55.520Z,100856.53
2023-05-07T11:15:40.012Z,100851.66
2023-05-07T11:18:07.936Z,100847.91
2023-05-07T11:20:50.031Z,100846.00
2023-05-07T11:23:59.489Z,100851.81
2023-05-07T11:26:29.713Z,100842.59
2023-05-07T11:29:13.305Z,100843.63
2023-05-07T11:31:41.233Z,100842.97
2023-05-07T11:34:09.024Z,100856.88
2023-05-07T11:36:36.791Z,100839.00
2023-05-07T11:39:04.719Z,100830.44
2023-05-07T11:41:38.443Z,100831.72
2023-05-07T11:44:06.401Z,100837.53
2023-05-07T11:46:34.404Z,100836.34
2023-05-07T11:49:02.847Z,100837.31
2023-05-07T11:51:30.969Z,100819.38
2023-05-07T11:53:58.650Z,100845.69
2023-05-07T11:56:26.548Z,100844.88
2023-05-07T11:58:56.000Z,100832.56
2023-05-07T12:01:23.687Z,100828.31
2023-05-07T12:03:51.425Z,100831.88
2023-05-07T12:06:20.084Z,100836.88
2023-05-07T12:08:48.702Z,100850.22
2023-05-07T12:11:19.028Z,100834.53
2023-05-07T12:14:00.432Z,100835.97
2023-05-07T12:16:28.597Z,100832.38
2023-05-07T12:18:57.042Z,100844.56
2023-05-07T12:21:26.207Z,100834.97
2023-05-07T12:23:53.948Z,100836.84
2023-05-07T12:26:22.748Z,100857.38
2023-05-07T12:28:50.494Z,100834.22
2023-05-07T12:31:19.929Z,100850.44
2023-05-07T12:33:47.617Z,100848.16
2023-05-07T12:36:15.570Z,100859.34
2023-05-07T12:38:43.263Z,100829.94
2023-05-07T12:41:13.371Z,100846.59
2023-05-07T12:43:41.298Z,100866.25
2023-05-07T12:46:09.845Z,100856.13
2023-05-07T12:48:41.060Z,100847.38
2023-05-07T12:51:11.235Z,100848.75
2023-05-07T12:53:42.315Z,100853.25
2023-05-07T12:56:09.994Z,100832.84
2023-05-07T12:58:38.126Z,100850.53
2023-05-07T13:01:07.718Z,100832.72
2023-05-07T13:03:37.127Z,100836.81
2023-05-07T13:06:07.800Z,100837.94
2023-05-07T13:08:37.358Z,100844.81
2023-05-07T13:11:06.443Z,100832.41
2023-05-07T13:13:34.963Z,100844.03
2023-05-07T13:16:03.148Z,100833.63
2023-05-07T13:18:32.652Z,100838.09
2023-05-07T13:23:39.604Z,100843.56
2023-05-07T13:26:25.026Z,100835.41
2023-05-07T13:28:54.156Z,100845.72
2023-05-07T13:31:22.083Z,100835.44
2023-05-07T13:33:49.786Z,100849.50
2023-05-07T13:36:17.696Z,100857.28
2023-05-07T13:38:47.493Z,100854.19
2023-05-07T13:41:15.822Z,100847.69
2023-05-07T13:43:43.489Z,100853.69
2023-05-07T13:46:11.295Z,100855.41
2023-05-07T13:48:38.995Z,100848.66
2023-05-07T13:51:06.745Z,100853.25
2023-05-07T13:53:34.406Z,100843.69
2023-05-07T13:56:05.585Z,100856.41
2023-05-07T13:58:33.569Z,100846.16
2023-05-07T14:01:01.633Z,100843.56
2023-05-07T14:03:29.398Z,100835.91
2023-05-07T14:05:58.810Z,100852.00
2023-05-07T14:08:26.757Z,100847.84
2023-05-07T14:10:54.348Z,100861.25
2023-05-07T14:13:23.492Z,100860.41
2023-05-07T14:15:51.454Z,100865.59
2023-05-07T14:18:19.101Z,100870.63
2023-05-07T14:20:48.590Z,100870.75
2023-05-07T14:23:18.502Z,100871.88
2023-05-07T14:25:48.646Z,100867.25
2023-05-07T14:28:16.396Z,100873.84
2023-05-07T14:30:45.465Z,100862.38
2023-05-07T14:33:13.263Z,100863.34
2023-05-07T14:35:40.903Z,100870.13
2023-05-07T14:38:10.450Z,100875.94
2023-05-07T14:40:38.383Z,100850.22
2023-05-07T14:43:06.183Z,100877.06
2023-05-07T14:45:33.952Z,100872.22
2023-05-07T14:48:03.201Z,100875.44
2023-05-07T14:50:30.897Z,100865.72
2023-05-07T14:52:58.786Z,100858.63
2023-05-07T14:55:26.515Z,100871.53
2023-05-07T14:57:54.177Z,100870.66
2023-05-07T15:00:22.368Z,100867.03
2023-05-07T15:02:50.213Z,100878.06
2023-05-07T15:05:20.325Z,100864.59
2023-05-07T15:07:48.323Z,100868.25
2023-05-07T15:10:16.844Z,100869.97
2023-05-07T15:12:44.573Z,100872.13
2023-05-07T15:15:13.199Z,100882.31
2023-05-07T15:17:41.386Z,100882.34
2023-05-07T15:20:09.859Z,100886.09
2023-05-07T15:22:40.053Z,100889.59
2023-05-07T15:25:10.412Z,100881.63
2023-05-07T15:27:38.513Z,100874.72
2023-05-07T15:30:07.731Z,100887.16
2023-05-07T15:32:35.523Z,100893.72
2023-05-07T15:35:03.404Z,100874.56
2023-05-07T15:37:32.486Z,100879.91
2023-05-07T15:40:03.326Z,100885.59
2023-05-07T15:42:31.109Z,100881.13
2023-05-07T15:45:01.330Z,100884.09
2023-05-07T15:47:29.175Z,100890.75
2023-05-07T15:49:56.879Z,100883.25
2023-05-07T15:52:24.628Z,100878.44
2023-05-07T15:54:52.281Z,100892.69
2023-05-07T15:57:22.352Z,100877.75
2023-05-07T15:59:50.187Z,100868.69
2023-05-07T16:02:18.206Z,100889.78
2023-05-07T16:04:45.879Z,100887.47
2023-05-07T16:07:13.833Z,100895.38
2023-05-07T16:09:41.692Z,100897.28
2023-05-07T16:12:09.351Z,100872.75
2023-05-07T16:14:38.524Z,100884.78
2023-05-07T16:17:06.374Z,100890.69
2023-05-07T16:19:34.296Z,100891.88
2023-05-07T16:22:02.017Z,100902.59
2023-05-07T16:24:29.737Z,100891.34
2023-05-07T16:29:32.636Z,100902.16
2023-05-07T16:32:01.797Z,100890.19
2023-05-07T16:34:30.942Z,100888.28
2023-05-07T16:36:59.950Z,100895.06
2023-05-07T16:39:27.678Z,100895.13
2023-05-07T16:41:55.405Z,100883.13
2023-05-07T16:44:23.474Z,100901.34
2023-05-07T16:46:52.040Z,100905.38
2023-05-07T16:49:21.174Z,100897.16
2023-05-07T16:51:48.842Z,100912.06
2023-05-07T16:54:32.393Z,100916.63
2023-05-07T16:57:00.184Z,100898.53
2023-05-07T16:59:31.481Z,100907.09
2023-05-07T17:01:59.436Z,100895.28
2023-05-07T17:04:29.856Z,100885.94
2023-05-07T17:06:57.895Z,100898.72
2023-05-07T17:09:25.683Z,100902.00
2023-05-07T17:11:53.371Z,100899.03
2023-05-07T17:14:21.024Z,100918.84
2023-05-07T17:17:04.056Z,100906.47
2023-05-07T17:19:33.322Z,100917.25
2023-05-07T17:22:00.993Z,100908.06
2023-05-07T17:24:28.612Z,100903.44
2023-05-07T17:26:56.288Z,100909.34
2023-05-07T17:29:23.906Z,100928.41
2023-05-07T17:31:51.699Z,100938.31
2023-05-07T17:34:19.755Z,100928.84
2023-05-07T17:36:49.098Z,100927.44
2023-05-07T17:39:16.706Z,100931.50
2023-05-07T17:41:44.379Z,100938.97
2023-05-07T17:44:12.042Z,100940.56
2023-05-07T17:46:39.865Z,100948.25
2023-05-07T17:49:07.523Z,100940.88
2023-05-07T17:51:49.662Z,100948.63
2023-05-07T17:54:34.514Z,100948.94
2023-05-07T17:57:02.176Z,100960.41
2023-05-07T17:59:29.932Z,100962.31
2023-05-07T18:01:57.799Z,100962.72
2023-05-07T18:04:26.863Z,100953.16
2023-05-07T18:06:54.585Z,100970.69
2023-05-07T18:09:22.316Z,100954.69
2023-05-07T18:11:51.379Z,100953.50
2023-05-07T18:14:24.004Z,100970.41
2023-05-07T18:16:51.962Z,100963.22
2023-05-07T18:19:19.885Z,100957.97
2023-05-07T18:21:47.721Z,100967.34
2023-05-07T18:24:17.782Z,100971.81
2023-05-07T18:26:45.526Z,100984.16
2023-05-07T18:29:14.743Z,100973.22
2023-05-07T18:31:42.507Z,100970.09
2023-05-07T18:34:31.393Z,100984.63
2023-05-07T18:36:59.521Z,100991.66
2023-05-07T18:39:27.381Z,100990.03
2023-05-07T18:41:55.144Z,100990.69
2023-05-07T18:44:24.202Z,100996.09
2023-05-07T18:46:51.904Z,101004.72
2023-05-07T18:49:19.713Z,101000.47
2023-05-07T18:51:47.397Z,101008.84
2023-05-07T18:54:15.015Z,101010.41
2023-05-07T18:56:43.272Z,101006.63
2023-05-07T18:59:11.058Z,101020.03
2023-05-07T19:01:40.197Z,101005.66
2023-05-07T19:04:08.088Z,101009.19
2023-05-07T19:06:35.791Z,101012.84
2023-05-07T19:09:04.943Z,101009.72
2023-05-07T19:11:32.565Z,101020.13
2023-05-07T19:14:01.717Z,101019.59
2023-05-07T19:16:30.724Z,101021.75
2023-05-07T19:19:00.101Z,101026.41
2023-05-07T19:21:28.626Z,101027.63
2023-05-07T19:23:57.441Z,101043.06
2023-05-07T19:26:26.503Z,101044.72
2023-05-07T19:29:11.773Z,101023.84
2023-05-07T19:31:41.915Z,101023.84
2023-05-07T19:34:13.248Z,101030.97
2023-05-07T19:36:41.356Z,101050.97
2023-05-07T19:39:09.055Z,101051.06
2023-05-07T19:41:37.052Z,101045.84
2023-05-07T19:44:05.093Z,101036.44
2023-05-07T19:46:32.880Z,101058.13
2023-05-07T19:49:01.384Z,101065.00
2023-05-07T19:51:32.584Z,101051.22
2023-05-07T19:54:00.271Z,101043.75
2023-05-07T19:56:27.992Z,101068.63
2023-05-07T19:58:55.677Z,101059.00
2023-05-07T20:01:23.422Z,101050.94
2023-05-07T20:03:51.492Z,101053.66
2023-05-07T20:06:19.421Z,101069.09
2023-05-07T20:08:48.527Z,101076.22
2023-05-07T20:11:16.164Z,101068.03
2023-05-07T20:13:43.934Z,101069.91
2023-05-07T20:16:11.762Z,101069.75
2023-05-07T20:18:39.449Z,101080.25
2023-05-07T20:21:07.207Z,101063.22
2023-05-07T20:23:34.863Z,101065.31
2023-05-07T20:26:03.999Z,101080.00
2023-05-07T20:28:31.882Z,101079.53
2023-05-07T20:30:59.509Z,101072.88
2023-05-07T20:36:19.103Z,101075.47
2023-05-07T20:38:46.840Z,101084.13
2023-05-07T20:41:16.402Z,101095.38
2023-05-07T20:43:44.252Z,101084.38
2023-05-07T20:46:12.262Z,101104.59
2023-05-07T20:48:39.957Z,101101.28
2023-05-07T20:51:10.416Z,101099.03
2023-05-07T20:53:40.603Z,101107.84
2023-05-07T20:56:08.323Z,101093.47
2023-05-07T20:58:37.860Z,101100.22
2023-05-07T21:01:06.796Z,101107.63
2023-05-07T21:03:34.569Z,101110.63
2023-05-07T21:06:03.118Z,101104.13
2023-05-07T21:08:31.039Z,101111.44
2023-05-07T21:10:59.229Z,101112.56
2023-05-07T21:13:27.002Z,101111.97
2023-05-07T21:15:56.082Z,101116.59
2023-05-07T21:18:26.703Z,101106.53
2023-05-07T21:20:54.372Z,101104.47
2023-05-07T21:23:22.278Z,101115.00
2023-05-07T21:25:51.788Z,101109.56
2023-05-07T21:28:19.465Z,101120.16
2023-05-07T21:30:47.088Z,101122.53
2023-05-07T21:33:16.335Z,101122.31
2023-05-07T21:35:44.070Z,101120.88
2023-05-07T21:38:12.560Z,101116.59
2023-05-07T21:40:40.518Z,101116.47
2023-05-07T21:43:08.190Z,101112.28
2023-05-07T21:45:35.928Z,101120.75
2023-05-07T21:48:03.638Z,101112.28
2023-05-07T21:50:33.173Z,101123.59
2023-05-07T21:53:01.070Z,101126.94
2023-05-07T21:55:28.748Z,101118.31
2023-05-07T21:58:05.100Z,101126.72
2023-05-07T22:00:34.172Z,101132.75
2023-05-07T22:03:01.944Z,101123.72
2023-05-07T22:05:29.709Z,101124.84
2023-05-07T22:07:58.770Z,101131.41
2023-05-07T22:10:26.680Z,101140.66
2023-05-07T22:12:54.396Z,101129.69
2023-05-07T22:15:22.114Z,101126.69
2023-05-07T22:17:49.866Z,101121.78
2023-05-07T22:20:17.767Z,101117.47
2023-05-07T22:22:47.523Z,101101.38
2023-05-07T22:25:18.604Z,101106.88
2023-05-07T22:27:46.241Z,101112.31
2023-05-07T22:30:14.400Z,101126.47
2023-05-07T22:32:43.244Z,101131.50
2023-05-07T22:35:11.711Z,101116.63
2023-05-07T22:37:39.441Z,101126.50
2023-05-07T22:40:08.168Z,101121.25
2023-05-07T22:42:37.248Z,101137.50
2023-05-07T22:45:05.775Z,101135.69
2023-05-07T22:47:33.504Z,101129.63
2023-05-07T22:50:01.708Z,101129.94
2023-05-07T22:52:29.335Z,101133.34
2023-05-07T22:54:57.022Z,101136.72
2023-05-07T22:57:24.715Z,101124.16
2023-05-07T22:59:56.265Z,101126.66
2023-05-07T23:02:24.316Z,101119.47
2023-05-07T23:04:52.094Z,101132.00
2023-05-07T23:07:20.022Z,101112.84
2023-05-07T23:09:47.685Z,101110.31
2023-05-07T23:12:15.391Z,101106.25
2023-05-07T23:14:43.053Z,101125.84
2023-05-07T23:17:12.330Z,101119.91
2023-05-07T23:19:40.119Z,101120.03
2023-05-07T23:22:07.864Z,101140.81
2023-05-07T23:24:35.882Z,101119.75
2023-05-07T23:27:06.708Z,101132.75
2023-05-07T23:29:34.516Z,101124.03
2023-05-07T23:32:02.588Z,101131.47
2023-05-07T23:34:31.632Z,101131.72
2023-05-07T23:36:59.287Z,101133.06
2023-05-07T23:39:27.169Z,101121.25
2023-05-07T23:41:55.147Z,101126.72
2023-05-07T23:44:22.831Z,101142.47
2023-05-07T23:46:50.977Z,101139.44
2023-05-07T23:49:18.661Z,101127.28
2023-05-07T23:51:47.713Z,101127.63
2023-05-07T23:54:15.794Z,101130.19
2023-05-07T23:56:43.471Z,101127.75
2023-05-07T23:59:11.201Z,101134.47
